Ploërmel Loyat Airfield

LFRP · Département du Morbihan, Région Bretagne, France

METAR anciennes LFRP · Ploërmel Loyat Airfield

Tu vois ci-dessous les METAR des derniers jours. Sélectionne une année pour parcourir les METAR plus anciens, à partir de l'année 2007.

1 mars 2024

Temps Code Temps Temp. Vue Base cloud Vent METAR/SPECI
12:00
M
6 °C 6 km 2.800 ft 270° 270° 8 kt METAR LFRV 011100Z AUTO 27008KT 240V300 6000 RA BKN028/// BKN034/// OVC041/// ///CB 06/04 Q0999
11:30
V
7 °C 10 km+ 3.400 ft 260° 260° 6 kt METAR LFRV 011030Z AUTO 26006KT 220V300 9999 -RA FEW028/// BKN034/// OVC041/// ///TCU 07/05 Q0999
11:00
M
7 °C 9 km 3.000 ft 270° 270° 8 kt METAR LFRV 011000Z AUTO 27008KT 230V290 9000 -RA BKN030 OVC037 07/05 Q0999
10:30
M
7 °C 10 km+ 2.900 ft 240° 240° 6 kt METAR LFRV 010930Z AUTO 24006KT 200V290 9999 -RA BKN029/// BKN038/// OVC045/// ///TCU 07/05 Q0999
10:00
M
7 °C 10 km+ 2.900 ft 230° 230° 7 kt METAR LFRV 010900Z AUTO 23007KT 190V270 9999 -RADZ BKN029 BKN035 BKN072 07/05 Q0999
09:30
V
7 °C 10 km+ - 230° 230° 5 kt METAR LFRV 010830Z AUTO 23005KT 190V270 CAVOK 07/05 Q0999
09:00
V
6 °C 10 km+ 4.300 ft 260° 260° 8 kt METAR LFRV 010800Z AUTO 26008KT 190V320 9999 -RA FEW030/// SCT036/// BKN043/// ///TCU 06/05 Q0999
08:30
V
7 °C 10 km+ 4.400 ft 270° 270° 8 kt METAR LFRV 010730Z AUTO 27008KT 9999 FEW015 BKN044 BKN060 07/05 Q1000
08:00
V
7 °C 10 km+ 3.300 ft 270° 270° 9 kt METAR LFRV 010700Z AUTO 27009KT 220V290 9999 SCT015/// BKN033/// BKN045/// ///TCU 07/06 Q0999
07:30
M
8 °C 6 km 2.500 ft 250° 250° 9 kt METAR LFRV 010630Z AUTO 25009KT 220V280 6000 -RA FEW013/// BKN025/// BKN031/// ///TCU 08/07 Q0999
07:00
M
7 °C 10 km+ 1.100 ft 220° 220° 6 kt METAR LFRV 010600Z AUTO 22006KT 190V250 9999 BKN011/// BKN021/// BKN029/// ///CB 07/07 Q0999
06:30
V
7 °C 10 km+ 4.400 ft 240° 240° 8 kt METAR LFRV 010530Z AUTO 24008KT 200V290 9999 SCT006/// SCT014/// BKN044/// ///CB 07/07 Q0999
06:00
I
7 °C 6 km 600 ft 270° 270° 12 kt METAR LFRV 010500Z AUTO 27012KT 230V300 6000 RA BKN006/// BKN011/// BKN017/// ///CB 07/07 Q0999
05:30
I
9 °C 5 km 500 ft 230° 230° 16 - 30 kt METAR LFRV 010430Z AUTO 23016G30KT 170V290 5000 RA BR OVC005/// ///CB 09/09 Q0998
05:00
I
8 °C 5 km 800 ft 190° 190° 14 - 24 kt METAR LFRV 010400Z AUTO 19014G24KT 170V230 5000 RA BR BKN008/// OVC013/// ///CB 08/08 Q0999
04:30
M
8 °C 6 km 1.300 ft 200° 200° 14 - 29 kt METAR LFRV 010330Z AUTO 20014G29KT 160V240 6000 RA BKN013/// BKN018/// BKN028/// ///CB 08/07 Q1001
04:00
M
8 °C 8 km 2.100 ft 200° 200° 13 - 24 kt METAR LFRV 010300Z AUTO 20013G24KT 160V280 8000 -RA FEW014/// BKN021/// BKN029/// ///TCU 08/06 Q1003
03:30
M
8 °C 10 km+ 2.800 ft 200° 200° 11 - 22 kt METAR LFRV 010230Z AUTO 20011G22KT 160V230 9999 -RA BKN028/// BKN036/// OVC043/// ///TCU 08/05 Q1004
03:00
V
8 °C 10 km+ 3.500 ft 210° 210° 10 kt METAR LFRV 010200Z AUTO 21010KT 180V250 9999 BKN035 BKN045 OVC150 08/04 Q1005
02:30
V
7 °C 10 km+ 5.000 ft 200° 200° 7 kt METAR LFRV 010130Z AUTO 20007KT 170V260 9999 FEW043 BKN050 OVC200 07/04 Q1006
02:00
V
5 °C 10 km+ 4.500 ft 210° 210° 6 kt METAR LFRV 010100Z AUTO 21006KT 180V240 9999 SCT033 BKN045 BKN220 05/03 Q1007
01:30
V
4 °C 10 km+ - 200° 200° 4 kt METAR LFRV 010030Z AUTO 20004KT 9999 FEW035 04/02 Q1007
01:00
V
4 °C 10 km+ - 190° 190° 3 kt METAR LFRV 010000Z AUTO 19003KT 9999 FEW036 04/02 Q1008
00:30
V
4 °C 10 km+ - 210° 210° 2 kt METAR LFRV 292330Z AUTO 21002KT CAVOK 04/02 Q1009
00:00
V
4 °C 10 km+ - 260° 260° 3 kt METAR LFRV 292300Z AUTO 26003KT CAVOK 04/03 Q1009

29 février 2024

Temps Code Temps Temp. Vue Base cloud Vent METAR/SPECI
23:30
V
4 °C 10 km+ - 250° 250° 3 kt METAR LFRV 292230Z AUTO 25003KT 210V270 CAVOK 04/03 Q1009
23:00
V
4 °C 10 km+ - 240° 240° 2 kt METAR LFRV 292200Z AUTO 24002KT CAVOK 04/03 Q1009
22:30
V
5 °C 10 km+ - 250° 250° 4 kt METAR LFRV 292130Z AUTO 25004KT 220V290 CAVOK 05/04 Q1009
22:00
V
5 °C 10 km+ - 260° 260° 4 kt METAR LFRV 292100Z AUTO 26004KT 230V290 CAVOK 05/04 Q1009
21:30
V
5 °C 10 km+ - 270° 270° 5 kt METAR LFRV 292030Z AUTO 27005KT CAVOK 05/04 Q1009
21:00
V
6 °C 10 km+ - 270° 270° 6 kt METAR LFRV 292000Z AUTO 27006KT CAVOK 06/05 Q1009
20:30
V
6 °C 10 km+ - 280° 280° 6 kt METAR LFRV 291930Z AUTO 28006KT CAVOK 06/05 Q1009
20:00
V
6 °C 10 km+ - 300° 300° 7 kt METAR LFRV 291900Z AUTO 30007KT CAVOK 06/05 Q1008
19:30
V
7 °C 10 km+ 14.000 ft 290° 290° 8 kt METAR LFRV 291830Z AUTO 29008KT 9999 FEW015/// SCT022/// BKN140/// ///TCU 07/06 Q1008
19:00
M
8 °C 10 km+ 2.800 ft 280° 280° 5 kt METAR LFRV 291800Z AUTO 28005KT 240V330 9999 RA FEW012/// SCT021/// BKN028/// ///TCU 08/06 Q1008
18:30
M
8 °C 10 km+ 1.800 ft 280° 280° 7 kt METAR LFRV 291730Z AUTO 28007KT 9999 BKN018 BKN024 OVC130 08/07 Q1007
18:00
M
8 °C 10 km+ 1.800 ft 280° 280° 7 kt METAR LFRV 291700Z AUTO 28007KT 250V310 9999 OVC018 08/06 Q1007
17:30
M
8 °C 10 km+ 2.000 ft 290° 290° 9 kt METAR LFRV 291630Z AUTO 29009KT 260V320 9999 BKN020 BKN027 BKN040 08/06 Q1007
17:00
V
8 °C 10 km+ 7.400 ft 300° 300° 9 kt METAR LFRV 291600Z AUTO 30009KT 9999 SCT029 SCT054 OVC074 08/06 Q1006
16:30
V
8 °C 10 km+ 5.800 ft 300° 300° 10 kt METAR LFRV 291530Z AUTO 30010KT 270V330 9999 SCT048 OVC058 08/07 Q1006
16:00
V
8 °C 10 km+ 4.000 ft 310° 310° 12 kt METAR LFRV 291500Z AUTO 31012KT 280V340 9999 -RA FEW010/// SCT033/// BKN040/// ///TCU 08/07 Q1006
15:30
M
8 °C 10 km+ 1.900 ft 310° 310° 8 kt METAR LFRV 291430Z AUTO 31008KT 280V340 9999 -RA SCT010/// BKN019/// BKN028/// ///TCU 08/07 Q1006
15:00
I
8 °C 3,8 km 1.300 ft 330° 330° 13 kt METAR LFRV 291400Z AUTO 33013KT 3800 -RA BR FEW009/// BKN013/// BKN021/// ///TCU 08/07 Q1005
14:30
M
8 °C 10 km+ 1.500 ft 330° 330° 11 kt METAR LFRV 291330Z AUTO 33011KT 280V350 9999 SCT008/// BKN015/// BKN021/// ///TCU 08/08 Q1005
14:00
I
11 °C 4,5 km 700 ft 210° 210° 9 kt METAR LFRV 291300Z AUTO 21009KT 170V280 4500 -RA BR BKN007/// OVC011/// ///TCU 11/10 Q1004
13:30
I
11 °C 10 km+ 800 ft 180° 180° 10 kt METAR LFRV 291230Z AUTO 18010KT 150V210 9999 BKN008/// BKN014/// OVC027/// ///TCU 11/10 Q1005
13:00
M
11 °C 10 km+ 1.100 ft 200° 200° 12 kt METAR LFRV 291200Z AUTO 20012KT 170V230 9999 RA BKN011 OVC054 11/10 Q1006
12:30
M
12 °C 10 km+ 1.100 ft 200° 200° 10 kt METAR LFRV 291130Z AUTO 20010KT 160V240 9999 OVC011 12/10 Q1006
12:00
M
11 °C 10 km+ 1.100 ft 200° 200° 11 kt METAR LFRV 291100Z AUTO 20011KT 170V230 9999 BKN011 OVC016 11/10 Q1007
11:30
M
11 °C 10 km+ 1.500 ft 200° 200° 11 kt METAR LFRV 291030Z AUTO 20011KT 160V250 9999 BKN015 OVC034 11/10 Q1007
11:00
M
11 °C 10 km+ 1.200 ft 200° 200° 9 kt METAR LFRV 291000Z AUTO 20009KT 170V230 9999 FEW008/// BKN012/// BKN017/// ///TCU 11/10 Q1007
10:30
I
10 °C 5 km 500 ft 210° 210° 7 kt METAR LFRV 290930Z AUTO 21007KT 170V250 5000 -RA BR BKN005 BKN009 OVC013 10/10 Q1008
10:00
M
11 °C 10 km+ 1.400 ft 210° 210° 11 kt METAR LFRV 290900Z AUTO 21011KT 170V240 9999 BKN014 BKN020 OVC029 11/09 Q1009
09:30
M
10 °C 10 km+ 2.800 ft 190° 190° 7 kt METAR LFRV 290830Z AUTO 19007KT 160V220 9999 SCT017 OVC028 10/10 Q1009
09:00
V
10 °C 10 km+ 3.300 ft 200° 200° 6 kt METAR LFRV 290800Z AUTO 20006KT 160V240 9999 FEW024 OVC033 10/10 Q1010
08:30
V
10 °C 10 km+ 3.400 ft 190° 190° 6 kt METAR LFRV 290730Z AUTO 19006KT 9999 SCT013 SCT029 OVC034 10/10 Q1010
08:00
M
10 °C 10 km+ 2.800 ft 200° 200° 6 kt METAR LFRV 290700Z AUTO 20006KT 170V240 9999 FEW014 BKN028 OVC046 10/10 Q1010
07:30
M
10 °C 10 km+ 1.500 ft 210° 210° 7 kt METAR LFRV 290630Z AUTO 21007KT 180V240 9999 SCT006 BKN015 OVC052 10/10 Q1011
07:00
I
10 °C 9 km 500 ft 200° 200° 6 kt METAR LFRV 290600Z AUTO 20006KT 180V240 9000 BKN005 BKN010 BKN016 10/10 Q1011
06:30
M
10 °C 10 km+ 2.400 ft 220° 220° 6 kt METAR LFRV 290530Z AUTO 22006KT 180V250 9999 FEW005 SCT017 BKN024 10/10 Q1011
06:00
I
10 °C 10 km+ 500 ft 210° 210° 6 kt METAR LFRV 290500Z AUTO 21006KT 180V240 9999 OVC005 10/10 Q1012
05:30
I
10 °C 10 km+ 500 ft 220° 220° 6 kt METAR LFRV 290430Z AUTO 22006KT 180V250 9999 OVC005 10/10 Q1012
05:00
I
10 °C 10 km+ 500 ft 220° 220° 7 kt METAR LFRV 290400Z AUTO 22007KT 180V260 9999 OVC005 10/10 Q1013
04:30
L
10 °C 10 km+ 400 ft 220° 220° 7 kt METAR LFRV 290330Z AUTO 22007KT 180V250 9999 OVC004 10/10 Q1013
04:00
L
10 °C 10 km+ 400 ft 220° 220° 7 kt METAR LFRV 290300Z AUTO 22007KT 190V260 9999 OVC004 10/10 Q1014
03:30
I
10 °C 9 km 500 ft 230° 230° 6 kt METAR LFRV 290230Z AUTO 23006KT 180V260 9000 OVC005 10/10 Q1014
03:00
I
10 °C 10 km+ 600 ft 230° 230° 7 kt METAR LFRV 290200Z AUTO 23007KT 190V260 9999 OVC006 10/10 Q1015
02:30
I
10 °C 10 km+ 600 ft 250° 250° 7 kt METAR LFRV 290130Z AUTO 25007KT 210V280 9999 OVC006 10/10 Q1015
02:00
L
11 °C 2,2 km - 240° 240° 8 kt METAR LFRV 290100Z AUTO 24008KT 200V270 2200 -DZ BR VV/// 11/11 Q1016
01:30
L
11 °C 2,9 km - 230° 230° 8 kt METAR LFRV 290030Z AUTO 23008KT 200V270 2900 -DZ BR VV/// 11/11 Q1016
01:00
L
11 °C 4,7 km - 230° 230° 7 kt METAR LFRV 290000Z AUTO 23007KT 190V270 4700 -DZ BR VV/// 11/11 Q1017
00:30
L
11 °C 5 km 200 ft 240° 240° 8 kt METAR LFRV 282330Z AUTO 24008KT 200V280 5000 -DZ BR OVC002 11/11 Q1017
00:00
L
11 °C 3,6 km - 230° 230° 6 kt METAR LFRV 282300Z AUTO 23006KT 190V260 3600 -DZ BR VV/// 11/11 Q1017

28 février 2024

Temps Code Temps Temp. Vue Base cloud Vent METAR/SPECI
23:30
L
11 °C 1,3 km - 230° 230° 6 kt METAR LFRV 282230Z AUTO 23006KT 190V270 1300 -DZ BR VV/// 11/11 Q1018
23:00
L
11 °C 900 m - 220° 220° 7 kt METAR LFRV 282200Z AUTO 22007KT 180V260 0900 FG VV/// 11/11 Q1018
22:30
L
11 °C 900 m - 220° 220° 8 kt METAR LFRV 282130Z AUTO 22008KT 170V250 0900 FG VV/// 11/11 Q1018
22:00
L
11 °C 700 m - 220° 220° 7 kt METAR LFRV 282100Z AUTO 22007KT 180V250 0700 FG VV/// 11/11 Q1019
21:30
L
11 °C 500 m - 220° 220° 6 kt METAR LFRV 282030Z AUTO 22006KT 190V250 0500 FG VV/// 11/11 Q1019
21:00
L
11 °C 550 m - 210° 210° 6 kt METAR LFRV 282000Z AUTO 21006KT 180V250 0550 FG VV/// 11/11 Q1019
20:30
L
11 °C 750 m - 200° 200° 6 kt METAR LFRV 281930Z AUTO 20006KT 170V230 0800 0750 FG VV/// 11/11 Q1020
20:00
L
11 °C 1 km - 210° 210° 6 kt METAR LFRV 281900Z AUTO 21006KT 170V240 1700 1000 -DZ BR VV/// 11/11 Q1020
19:30
L
11 °C 1 km - 210° 210° 7 kt METAR LFRV 281830Z AUTO 21007KT 180V250 1600 1000 -DZ BR VV/// 11/11 Q1020
19:00
L
11 °C 1,3 km - 220° 220° 7 kt METAR LFRV 281800Z AUTO 22007KT 180V260 1400 1300 -DZ BR VV/// 11/10 Q1020
18:30
L
11 °C 1,4 km - 220° 220° 6 kt METAR LFRV 281730Z AUTO 22006KT 180V250 1400 -DZ BR VV/// 11/11 Q1020
18:00
L
11 °C 3 km 400 ft 220° 220° 6 kt METAR LFRV 281700Z AUTO 22006KT 180V280 3000 DZ BR OVC004 11/10 Q1020
17:30
I
11 °C 10 km+ 700 ft 240° 240° 8 kt METAR LFRV 281630Z AUTO 24008KT 190V270 9999 OVC007 11/10 Q1020
17:00
I
12 °C 10 km+ 900 ft 240° 240° 7 kt METAR LFRV 281600Z AUTO 24007KT 200V270 9999 BKN009 OVC013 12/10 Q1021
16:30
I
12 °C 10 km+ 900 ft 240° 240° 5 kt METAR LFRV 281530Z AUTO 24005KT 200V280 9999 OVC009 12/11 Q1021
16:00
M
12 °C 10 km+ 1.200 ft 250° 250° 7 kt METAR LFRV 281500Z AUTO 25007KT 220V290 9999 OVC012 12/11 Q1021
15:30
M
12 °C 10 km+ 1.000 ft 230° 230° 8 kt METAR LFRV 281430Z AUTO 23008KT 180V260 9999 BKN010 OVC014 12/11 Q1021
15:00
I
12 °C 10 km+ 900 ft 240° 240° 6 kt METAR LFRV 281400Z AUTO 24006KT 200V280 9999 BKN009 OVC017 12/11 Q1022
14:30
I
12 °C 10 km+ 800 ft 240° 240° 7 kt METAR LFRV 281330Z AUTO 24007KT 200V280 9999 BKN008 OVC013 12/11 Q1022
14:00
I
12 °C 10 km+ 800 ft 230° 230° 8 kt METAR LFRV 281300Z AUTO 23008KT 200V270 9999 OVC008 12/11 Q1022
13:30
I
12 °C 10 km+ 900 ft 250° 250° 6 kt METAR LFRV 281230Z AUTO 25006KT 200V290 9999 BKN009 OVC013 12/11 Q1023
13:00
L
12 °C 10 km+ 400 ft 230° 230° 6 kt METAR LFRV 281200Z AUTO 23006KT 190V260 9999 OVC004 12/12 Q1023
12:30
L
11 °C 6 km 400 ft 180° 180° 4 kt METAR LFRV 281130Z AUTO 18004KT 120V230 6000 OVC004 11/11 Q1023
12:00
L
11 °C 8 km 400 ft 220° 220° 4 kt METAR LFRV 281100Z AUTO 22004KT 190V260 8000 OVC004 11/11 Q1023
11:30
I
11 °C 10 km+ 500 ft 210° 210° 3 kt METAR LFRV 281030Z AUTO 21003KT 180V270 9999 OVC005 11/11 Q1023
11:00
I
10 °C 10 km+ 500 ft 250° 250° 4 kt METAR LFRV 281000Z AUTO 25004KT 210V290 9999 OVC005 10/10 Q1023
10:30
L
10 °C 10 km+ - Var Var 3 kt METAR LFRV 280930Z AUTO VRB03KT 9999 VV/// 10/10 Q1023
10:00
L
10 °C 400 m - 220° 220° 4 kt METAR LFRV 280900Z AUTO 22004KT 180V280 0450 0400 FG VV/// 10/10 Q1023
09:30
L
10 °C 300 m - Var Var 2 kt METAR LFRV 280830Z AUTO VRB02KT 0300 FG VV/// 10/10 Q1023
09:00
L
9 °C 300 m - Var Var 2 kt METAR LFRV 280800Z AUTO VRB02KT 0300 FG VV/// 09/09 Q1022
08:30
L
9 °C 350 m - 180° 180° 2 kt METAR LFRV 280730Z AUTO 18002KT 0350 FG VV/// 09/09 Q1023
08:00
L
9 °C 350 m - Var Var 1 kt METAR LFRV 280700Z AUTO VRB01KT 0350 FG VV/// 09/09 Q1022
07:30
L
9 °C 500 m - 190° 190° 1 kt METAR LFRV 280630Z AUTO 19001KT 0500 FG VV/// 09/09 Q1022
07:00
L
9 °C 550 m - Var Var 1 kt METAR LFRV 280600Z AUTO VRB01KT 0550 FG VV/// 09/08 Q1022